Terminal Aerodrome Forecast
Issued by NWS

Home | Current Version | Previous Version | Text Only | Print | Product List | Glossary On
Versions: 1 2 3 4 5 6 7 8 9 10 11 12 13 14 15 16 17 18
820
FTUS44 KLZK 211737
TAFPBF
TAF
KPBF 211737Z 2118/2218 36010KT 6SM -RA BR SCT007 OVC050
      WS020/08040KT
      TEMPO 2118/2122 4SM RA BR BKN007 OVC025
     FM212200 08008KT 6SM -RA BR VCTS OVC025CB WS020/08040KT
     FM220200 07008KT 5SM RA BR VCTS OVC010CB
     FM220600 07007KT 4SM -RA BKN008 OVC015=

USA.gov is the U.S. government's official web portal to all federal, state and local government web resources and services.